< < Back
Terminal Aerodrome Forecast


Current Version              Previous Versions:   1  2  3  4  5  6  7  8  9  

Terminal Aerodrome Forecast

012
FTUS42 KGSP 010211 AAA
TAFAND
TAF AMD
KAND 010211Z 0102/0124 25010KT P6SM FEW060 SCT250
      TEMPO 0103/0105 -SHRA BKN060 OVC250
     FM010600 26004KT P6SM SCT060
     FM011000 32003KT P6SM SCT060
     FM011400 06006KT P6SM SCT060
     FM012000 11004KT P6SM SCT060=



Latest METAR

080
SAUS70 KWBC 011000 RRX
MTRAND
METAR KAND 010956Z AUTO 25007KT 10SM CLR 16/12 A2993 RMK AO2 SLP129
T01610122


USA.gov is the U.S. government's official web portal to all federal, state and local government web resources and services.